Louisburg, KS

10:06 AM CDT on August 01, 2015 (GMT -0500)
Powell Observatory, Lewis Young Park | | Change Station
CLOSE
Current Station
Personal Weather Station
Location: Louisburg, KS
Elevation: 1073 ft
Nearby Weather Stations

Elev 1073 ft 38.65 °N, 94.70 °W | Updated 5 seconds ago

Clear
Clear
87.9 °F
Feels Like 94 °F
N
0.0
Wind Variable Wind from West
Gusts 0.0 mph

Today
High -- | Low -- °F
--% Chance of Precip.
Yesterday
High -- | Low -- °F
Precip. -- in
6:20 AM 8:29 PM
Full, 98% visible
Pressure 30.04 in
Visibility 10.0 miles
Clouds Clear
Heat Index 94 °F
Dew Point 72 °F
Humidity 59%
Rainfall 0.00 in
Snow Depth Not available.
UV 5 out of 12
Pollen 7.10 out of 12
Air Quality Not available.
Flu Activity Not available.
METAR KOJC 011453Z 28007KT 10SM CLR 28/22 A3008 RMK AO2 SLP173 T02830222 53006

More Conditions Fewer Conditions

Pressure 30.04 in
Visibility 10.0 miles
Clouds Clear
Heat Index 94 °F
Dew Point 72 °F
Humidity 59%
Rainfall 0.00 in
Snow Depth Not available.
UV 5 out of 12
Pollen 7.10 out of 12
Air Quality Not available.
Flu Activity Not available.
METAR KOJC 011453Z 28007KT 10SM CLR 28/22 A3008 RMK AO2 SLP173 T02830222 53006

More Conditions Fewer Conditions

10-Day Weather Forecast

×

Almanac

Astronomy

Aug. 01, 2015 Rise Set
Actual Time
Civil Twilight
Nautical Twilight
Astronomical Twilight
Moon
Length of Visible Light
Length of Day
Tomorrow will be .
, % of the Moon is Illuminated

Today's Extremes

State Highs State Lows

Community

WunderPhotos

Upload Photos

1,842,959 photos uploaded!

WunderBlogs® & News

Nearby

Air Quality

  Air Quality AQ Index Pollutant
Not available.

Snow Depth

Station Depth Elevation

Earthquake Activity

City Distance Mag. Time & Date
Minimum magnitude displayed is 2.5.

Coastal Water Temperatures

Place Temperature

Stations

Nearby Weather Stations

Station Location Temp. Windchill Dew Point Humidity Wind Precip. Elev Updated Type